Time;durP1;ratioP1;P1;durP2;ratioP2;P2;SDS_P1;SDS_P2;PMS_P1;PMS_P2;Temp;Humidity;BMP_temperature;BMP_pressure;BME280_temperature;BME280_humidity;BME280_pressure;Samples;Min_cycle;Max_cycle;Signal;HPM_P1;HPM_P2
2021/08/09 00:00:13;;;;;;;7.28;3.15;;;;;;;;;;5002640;28;20105;-77
2021/08/09 00:02:39;;;;;;;8.35;2.97;;;;;;;;;;4997639;28;20030;-76
2021/08/09 00:05:06;;;;;;;4.07;2.53;;;;;;;;;;5011069;28;20022;-77
2021/08/09 00:07:32;;;;;;;3.22;2.28;;;;;;;;;;4995539;28;20514;-78
2021/08/09 00:09:58;;;;;;;6.07;2.63;;;;;;;;;;4986485;28;20496;-76
2021/08/09 00:12:24;;;;;;;4.28;2.60;;;;;;;;;;4976321;28;20038;-76
2021/08/09 00:14:50;;;;;;;5.97;2.72;;;;;;;;;;4977547;28;20027;-77
2021/08/09 00:17:16;;;;;;;5.30;2.65;;;;;;;;;;4960182;28;20117;-77
2021/08/09 00:19:42;;;;;;;5.30;2.80;;;;;;;;;;4976804;28;20023;-76
2021/08/09 00:22:08;;;;;;;7.10;2.70;;;;;;;;;;4993800;28;20029;-76
2021/08/09 00:24:34;;;;;;;3.33;2.40;;;;;;;;;;4995444;28;20026;-76
2021/08/09 00:27:00;;;;;;;3.80;2.45;;;;;;;;;;4979189;28;20036;-77
2021/08/09 00:29:26;;;;;;;7.15;2.78;;;;;;;;;;4994415;28;20026;-78
2021/08/09 00:31:52;;;;;;;6.55;2.88;;;;;;;;;;4995077;28;20101;-77
2021/08/09 00:34:19;;;;;;;4.72;2.65;;;;;;;;;;4995934;28;20053;-78
2021/08/09 00:36:46;;;;;;;5.75;2.55;;;;;;;;;;4995101;28;20037;-77
2021/08/09 00:39:12;;;;;;;4.63;2.97;;;;;;;;;;4995226;28;20113;-77
2021/08/09 00:41:38;;;;;;;3.85;2.47;;;;;;;;;;4996300;28;20035;-77
2021/08/09 00:44:05;;;;;;;5.40;2.70;;;;;;;;;;4994304;28;20388;-77
2021/08/09 00:46:31;;;;;;;4.70;2.50;;;;;;;;;;4994930;28;20031;-76
2021/08/09 00:48:57;;;;;;;4.80;2.70;;;;;;;;;;4995218;28;20026;-77
2021/08/09 00:51:23;;;;;;;6.10;2.53;;;;;;;;;;4987572;28;20034;-76
2021/08/09 00:53:50;;;;;;;5.63;2.63;;;;;;;;;;4996692;28;20030;-77
2021/08/09 00:56:16;;;;;;;5.95;2.80;;;;;;;;;;4995713;28;20053;-77
2021/08/09 00:58:42;;;;;;;4.93;2.30;;;;;;;;;;4995206;28;20023;-77
2021/08/09 01:01:08;;;;;;;6.00;2.53;;;;;;;;;;4995742;28;20050;-77
2021/08/09 01:03:34;;;;;;;4.22;2.90;;;;;;;;;;5001405;28;20383;-77
2021/08/09 01:06:00;;;;;;;4.63;2.90;;;;;;;;;;5001395;28;20069;-78
2021/08/09 01:08:26;;;;;;;6.57;2.40;;;;;;;;;;4997128;28;20038;-76
2021/08/09 01:10:53;;;;;;;4.22;2.40;;;;;;;;;;4995981;28;20521;-77
2021/08/09 01:13:19;;;;;;;5.65;2.20;;;;;;;;;;4995559;28;20022;-77
2021/08/09 01:15:47;;;;;;;6.97;2.47;;;;;;;;;;5005366;28;20035;-77
2021/08/09 01:18:14;;;;;;;6.45;2.35;;;;;;;;;;5006406;28;20029;-77
2021/08/09 01:20:51;;;;;;;3.35;2.30;;;;;;;;;;5004212;28;20031;-75
2021/08/09 01:23:36;;;;;;;4.65;2.70;;;;;;;;;;4997917;28;20101;-77
2021/08/09 01:26:08;;;;;;;5.55;2.88;;;;;;;;;;4995726;28;20030;-78
2021/08/09 01:28:34;;;;;;;6.30;2.80;;;;;;;;;;4995501;28;20053;-77
2021/08/09 01:31:01;;;;;;;4.60;2.58;;;;;;;;;;4995157;28;20347;-77
2021/08/09 01:33:28;;;;;;;4.97;2.45;;;;;;;;;;4995106;28;20037;-77
2021/08/09 01:35:55;;;;;;;4.95;2.67;;;;;;;;;;4994820;28;20026;-77
2021/08/09 01:38:22;;;;;;;6.28;2.58;;;;;;;;;;4994935;28;20506;-77
2021/08/09 01:40:49;;;;;;;6.20;2.78;;;;;;;;;;4994700;28;20054;-77
2021/08/09 01:43:15;;;;;;;4.78;2.33;;;;;;;;;;4994790;28;20036;-76
2021/08/09 01:45:42;;;;;;;6.20;2.50;;;;;;;;;;4993887;28;20037;-76
2021/08/09 01:48:09;;;;;;;3.22;2.28;;;;;;;;;;4993560;28;20034;-77
2021/08/09 01:50:35;;;;;;;5.60;2.42;;;;;;;;;;4992816;28;20102;-76
2021/08/09 01:53:01;;;;;;;2.72;2.33;;;;;;;;;;4993410;28;20038;-77
2021/08/09 01:55:28;;;;;;;7.43;2.53;;;;;;;;;;4992078;28;20057;-76
2021/08/09 01:57:54;;;;;;;4.63;2.30;;;;;;;;;;4993370;28;20109;-77
2021/08/09 02:00:21;;;;;;;6.63;2.47;;;;;;;;;;4992854;28;20032;-77
2021/08/09 02:02:48;;;;;;;4.63;2.42;;;;;;;;;;4993236;28;20117;-77
2021/08/09 02:05:15;;;;;;;7.85;2.80;;;;;;;;;;4993152;28;20048;-77
2021/08/09 02:07:46;;;;;;;6.82;2.58;;;;;;;;;;4993094;28;20037;-76
2021/08/09 02:10:13;;;;;;;6.03;2.42;;;;;;;;;;4992713;28;20081;-77
2021/08/09 02:12:47;;;;;;;4.68;2.38;;;;;;;;;;4993274;28;20034;-77
2021/08/09 02:15:15;;;;;;;6.72;2.50;;;;;;;;;;4993672;28;20081;-77
2021/08/09 02:17:48;;;;;;;4.47;2.10;;;;;;;;;;4993164;28;20026;-77
2021/08/09 02:20:25;;;;;;;7.93;2.22;;;;;;;;;;4992828;28;20026;-77
2021/08/09 02:22:54;;;;;;;6.18;2.45;;;;;;;;;;4992886;28;20058;-77
2021/08/09 02:25:21;;;;;;;6.15;2.45;;;;;;;;;;4992935;28;20105;-77
2021/08/09 02:27:49;;;;;;;4.88;2.30;;;;;;;;;;4992021;28;20045;-77
2021/08/09 02:30:17;;;;;;;8.63;3.15;;;;;;;;;;4992088;28;20035;-77
2021/08/09 02:32:44;;;;;;;4.70;2.80;;;;;;;;;;4991877;28;20038;-77
2021/08/09 02:35:11;;;;;;;5.15;2.95;;;;;;;;;;4990945;28;20037;-77
2021/08/09 02:37:38;;;;;;;7.30;2.58;;;;;;;;;;4992675;28;20019;-77
2021/08/09 02:40:05;;;;;;;3.85;2.40;;;;;;;;;;4973009;28;20027;-77
2021/08/09 02:42:31;;;;;;;6.65;2.67;;;;;;;;;;4974321;28;20027;-77
2021/08/09 02:44:57;;;;;;;8.75;3.30;;;;;;;;;;4992738;28;20491;-77
2021/08/09 02:47:24;;;;;;;7.13;1.90;;;;;;;;;;4992763;28;20376;-76
2021/08/09 02:49:51;;;;;;;5.15;2.38;;;;;;;;;;4992529;28;20034;-77
2021/08/09 02:52:18;;;;;;;10.30;2.42;;;;;;;;;;4992797;28;20049;-76
2021/08/09 02:54:47;;;;;;;4.13;2.08;;;;;;;;;;4992474;28;20022;-77
2021/08/09 02:57:14;;;;;;;6.75;2.30;;;;;;;;;;4992745;28;20034;-76
2021/08/09 02:59:40;;;;;;;4.95;2.05;;;;;;;;;;4991994;28;20565;-77
2021/08/09 03:02:07;;;;;;;12.68;2.38;;;;;;;;;;4992856;28;20030;-77
2021/08/09 03:04:34;;;;;;;3.10;1.90;;;;;;;;;;4992522;28;20045;-77
2021/08/09 03:07:03;;;;;;;5.32;2.20;;;;;;;;;;4993319;28;20081;-77
2021/08/09 03:09:29;;;;;;;5.60;2.10;;;;;;;;;;4992794;28;20450;-77
2021/08/09 03:11:55;;;;;;;4.07;2.08;;;;;;;;;;4993597;28;20030;-76
2021/08/09 03:14:31;;;;;;;4.85;2.50;;;;;;;;;;4993703;28;20037;-77
2021/08/09 03:17:00;;;;;;;4.72;2.05;;;;;;;;;;4995884;28;20090;-77
2021/08/09 03:19:26;;;;;;;5.50;2.47;;;;;;;;;;4999636;28;20050;-77
2021/08/09 03:21:52;;;;;;;6.28;2.25;;;;;;;;;;4993603;28;20514;-77
2021/08/09 03:24:19;;;;;;;4.03;2.17;;;;;;;;;;4994082;28;20031;-78
2021/08/09 03:26:45;;;;;;;4.35;2.08;;;;;;;;;;4994218;28;20412;-77
2021/08/09 03:29:11;;;;;;;4.53;2.35;;;;;;;;;;4993191;28;20034;-77
2021/08/09 03:31:37;;;;;;;4.35;2.17;;;;;;;;;;4991785;28;20376;-77
2021/08/09 03:34:03;;;;;;;3.75;2.00;;;;;;;;;;4993998;28;20128;-77
2021/08/09 03:36:29;;;;;;;2.40;1.85;;;;;;;;;;4993776;28;20030;-78
2021/08/09 03:38:55;;;;;;;5.45;2.10;;;;;;;;;;4993347;28;20037;-77
2021/08/09 03:41:21;;;;;;;4.82;2.00;;;;;;;;;;4993870;28;20034;-77
2021/08/09 03:43:47;;;;;;;5.95;2.00;;;;;;;;;;4995321;28;20053;-77
2021/08/09 03:46:14;;;;;;;4.15;1.77;;;;;;;;;;4997843;28;20031;-77
2021/08/09 03:48:40;;;;;;;10.10;4.88;;;;;;;;;;4997374;28;20102;-78
2021/08/09 03:51:06;;;;;;;3.97;1.90;;;;;;;;;;4996775;28;20022;-77
2021/08/09 03:53:32;;;;;;;5.90;1.65;;;;;;;;;;4997169;28;20049;-77
2021/08/09 03:55:58;;;;;;;5.90;2.10;;;;;;;;;;4996642;28;20034;-77
2021/08/09 03:58:24;;;;;;;3.92;1.65;;;;;;;;;;4997138;28;20018;-77
2021/08/09 04:00:50;;;;;;;5.43;1.80;;;;;;;;;;4979141;28;20029;-77
2021/08/09 04:03:17;;;;;;;2.33;1.45;;;;;;;;;;4996992;28;20404;-77
2021/08/09 04:05:43;;;;;;;6.90;1.55;;;;;;;;;;4996613;28;20125;-77
2021/08/09 04:08:09;;;;;;;2.63;1.45;;;;;;;;;;4995543;28;20049;-77
2021/08/09 04:10:35;;;;;;;4.63;1.52;;;;;;;;;;4996378;28;20026;-76
2021/08/09 04:13:01;;;;;;;5.22;1.77;;;;;;;;;;4998941;28;20069;-78
2021/08/09 04:15:27;;;;;;;5.00;1.80;;;;;;;;;;4998863;28;20022;-76
2021/08/09 04:17:53;;;;;;;2.15;1.55;;;;;;;;;;4999033;28;20053;-77
2021/08/09 04:20:19;;;;;;;2.72;1.40;;;;;;;;;;4998046;28;20034;-77
2021/08/09 04:22:45;;;;;;;4.57;1.70;;;;;;;;;;4998616;28;20022;-77
2021/08/09 04:25:11;;;;;;;5.32;1.40;;;;;;;;;;4998422;28;20045;-78
2021/08/09 04:27:37;;;;;;;2.85;1.40;;;;;;;;;;4999421;28;20037;-78
2021/08/09 04:30:04;;;;;;;4.57;1.48;;;;;;;;;;5011098;28;20034;-77
2021/08/09 04:32:37;;;;;;;2.70;1.08;;;;;;;;;;5006640;28;20038;-77
2021/08/09 04:35:04;;;;;;;2.20;1.45;;;;;;;;;;5010480;28;20018;-76
2021/08/09 04:37:30;;;;;;;2.13;1.40;;;;;;;;;;5011609;28;20406;-78
2021/08/09 04:39:56;;;;;;;5.28;1.40;;;;;;;;;;5010686;28;20022;-75
2021/08/09 04:42:22;;;;;;;2.38;1.13;;;;;;;;;;5001566;28;20039;-77
2021/08/09 04:44:48;;;;;;;3.85;1.40;;;;;;;;;;5007759;28;20035;-77
2021/08/09 04:47:14;;;;;;;8.48;1.60;;;;;;;;;;4989699;28;20514;-76
2021/08/09 04:49:42;;;;;;;3.25;1.55;;;;;;;;;;5006872;28;20027;-77
2021/08/09 04:52:08;;;;;;;3.63;1.27;;;;;;;;;;4990447;28;20045;-76
2021/08/09 04:54:34;;;;;;;2.28;1.30;;;;;;;;;;5019343;28;20022;-76
2021/08/09 04:57:00;;;;;;;2.53;1.30;;;;;;;;;;5017809;28;20061;-75
2021/08/09 04:59:26;;;;;;;1.83;1.15;;;;;;;;;;5017251;28;20031;-76
2021/08/09 05:01:52;;;;;;;3.60;1.60;;;;;;;;;;5000420;28;20035;-77
2021/08/09 05:04:18;;;;;;;2.00;1.30;;;;;;;;;;4997889;28;20093;-77
2021/08/09 05:06:44;;;;;;;2.03;1.17;;;;;;;;;;4999835;28;20061;-79
2021/08/09 05:09:10;;;;;;;2.50;1.20;;;;;;;;;;4999005;28;20030;-76
2021/08/09 05:11:36;;;;;;;3.65;1.30;;;;;;;;;;4995685;28;20030;-77
2021/08/09 05:14:02;;;;;;;3.97;1.15;;;;;;;;;;4996045;28;20145;-77
2021/08/09 05:16:29;;;;;;;2.58;1.15;;;;;;;;;;4995763;28;20038;-77
2021/08/09 05:19:01;;;;;;;3.10;1.40;;;;;;;;;;4996834;28;20033;-77
2021/08/09 05:21:27;;;;;;;1.98;1.02;;;;;;;;;;4998600;28;20027;-78
2021/08/09 05:23:53;;;;;;;3.45;1.10;;;;;;;;;;4999196;28;20030;-77
2021/08/09 05:26:19;;;;;;;2.67;1.23;;;;;;;;;;4998925;28;20082;-79
2021/08/09 05:28:45;;;;;;;4.25;1.20;;;;;;;;;;4998926;28;20027;-79
2021/08/09 05:31:12;;;;;;;5.15;1.20;;;17.10;99.90;;;;;;4998866;28;20402;-79
2021/08/09 05:33:38;;;;;;;2.50;0.98;;;14.70;99.90;;;;;;4999088;28;20026;-78
2021/08/09 05:36:05;;;;;;;3.45;1.30;;;14.60;99.90;;;;;;4997787;28;20023;-79
2021/08/09 05:38:30;;;;;;;5.93;1.60;;;14.80;99.90;;;;;;4997116;28;20046;-79
2021/08/09 05:40:56;;;;;;;3.25;1.30;;;14.90;99.90;;;;;;4998088;28;20041;-80
2021/08/09 05:43:22;;;;;;;1.63;1.10;;;15.50;99.90;;;;;;4996572;28;20491;-79
2021/08/09 05:45:47;;;;;;;2.45;0.95;;;15.30;99.90;;;;;;4964570;28;20023;-78
2021/08/09 05:48:13;;;;;;;2.35;1.40;;;15.10;99.90;;;;;;4998185;28;20622;-79
2021/08/09 05:50:38;;;;;;;3.70;0.90;;;15.30;99.90;;;;;;4996259;28;20109;-77
2021/08/09 05:53:04;;;;;;;5.75;1.40;;;15.50;99.90;;;;;;4997267;28;20034;-83
2021/08/09 05:55:32;;;;;;;4.93;1.35;;;15.30;99.90;;;;;;4965394;28;20034;-78
2021/08/09 05:57:57;;;;;;;2.33;1.00;;;15.50;99.90;;;;;;4997731;28;20483;-79
2021/08/09 06:00:23;;;;;;;4.13;1.05;;;15.70;99.90;;;;;;4997664;28;20034;-79
2021/08/09 06:02:49;;;;;;;3.08;1.00;;;15.50;99.90;;;;;;4998424;28;20022;-78
2021/08/09 06:05:16;;;;;;;4.80;1.08;;;15.70;99.90;;;;;;4997064;28;20026;-77
2021/08/09 06:07:41;;;;;;;1.83;0.90;;;15.40;99.90;;;;;;4996168;28;20038;-79
2021/08/09 06:10:08;;;;;;;4.05;1.10;;;15.50;99.90;;;;;;4996019;28;20030;-79
2021/08/09 06:12:36;;;;;;;4.60;1.00;;;15.30;99.90;;;;;;4996456;28;20569;-79
2021/08/09 06:15:03;;;;;;;2.33;0.93;;;16.50;99.90;;;;;;4996145;28;20035;-79
2021/08/09 06:17:28;;;;;;;4.68;1.08;;;15.20;99.90;;;;;;4996791;28;20085;-78
2021/08/09 06:19:54;;;;;;;3.53;1.67;;;15.50;99.90;;;;;;4997118;28;20034;-79
2021/08/09 06:22:19;;;;;;;1.38;0.98;;;15.80;99.90;;;;;;4997609;28;20031;-79
2021/08/09 06:24:45;;;;;;;4.75;1.40;;;15.70;99.90;;;;;;4980356;28;20023;-78
2021/08/09 06:27:10;;;;;;;5.03;1.60;;;15.40;99.90;;;;;;4997027;28;20038;-77
2021/08/09 06:29:36;;;;;;;3.50;1.65;;;15.50;99.90;;;;;;4990059;28;20031;-78
2021/08/09 06:32:02;;;;;;;5.38;1.48;;;15.60;99.90;;;;;;4986947;28;20121;-76
2021/08/09 06:34:28;;;;;;;2.90;0.90;;;15.60;99.90;;;;;;4997723;28;20042;-78
2021/08/09 06:36:53;;;;;;;2.58;1.00;;;15.60;99.90;;;;;;4998255;28;20090;-76
2021/08/09 06:39:20;;;;;;;3.83;0.80;;;15.70;99.90;;;;;;4979365;28;20029;-79
2021/08/09 06:41:48;;;;;;;1.85;0.90;;;15.90;99.90;;;;;;4996081;28;20034;-79
2021/08/09 06:44:14;;;;;;;5.15;0.80;;;16.00;99.90;;;;;;4997810;28;20033;-79
2021/08/09 06:46:40;;;;;;;3.35;1.10;;;16.30;99.90;;;;;;4996219;28;20031;-78
2021/08/09 06:49:05;;;;;;;2.38;0.98;;;16.20;99.90;;;;;;4993136;28;20671;-77
2021/08/09 06:51:31;;;;;;;4.47;1.10;;;16.20;99.90;;;;;;4995746;28;20120;-78
2021/08/09 06:53:57;;;;;;;5.10;0.90;;;16.30;99.90;;;;;;4997160;28;20058;-76
2021/08/09 06:56:23;;;;;;;2.03;0.80;;;16.60;99.90;;;;;;5002946;28;20053;-76
2021/08/09 06:58:48;;;;;;;4.97;1.30;;;17.00;99.90;;;;;;5002139;28;20038;-76
2021/08/09 07:01:14;;;;;;;4.40;0.70;;;16.60;99.90;;;;;;5005510;28;20034;-75
2021/08/09 07:03:43;;;;;;;2.90;0.90;;;17.00;99.90;;;;;;5009508;28;20038;-77
2021/08/09 07:06:16;;;;;;;3.25;1.00;;;17.10;99.90;;;;;;4996358;28;20023;-79
2021/08/09 07:08:42;;;;;;;2.55;0.75;;;17.10;99.90;;;;;;4996618;28;20026;-78
2021/08/09 07:11:08;;;;;;;4.43;0.77;;;17.10;99.90;;;;;;4994831;28;20400;-78
2021/08/09 07:13:33;;;;;;;4.50;1.08;;;17.40;99.90;;;;;;4996467;28;20027;-79
2021/08/09 07:15:59;;;;;;;2.63;1.00;;;17.60;99.90;;;;;;4994718;28;20038;-77
2021/08/09 07:18:24;;;;;;;2.53;0.80;;;18.30;99.90;;;;;;4976955;28;20026;-78
2021/08/09 07:20:50;;;;;;;5.18;0.95;;;17.60;99.90;;;;;;4996835;28;20026;-77
2021/08/09 07:23:16;;;;;;;4.30;0.82;;;17.70;99.90;;;;;;4999572;28;20058;-79
2021/08/09 07:25:42;;;;;;;2.85;0.80;;;17.70;99.90;;;;;;4999545;28;20026;-77
2021/08/09 07:28:07;;;;;;;2.45;0.90;;;17.80;99.90;;;;;;4999529;28;20077;-79
2021/08/09 07:30:33;;;;;;;1.95;0.70;;;17.90;99.90;;;;;;4999014;28;20038;-79
2021/08/09 07:32:59;;;;;;;2.60;0.73;;;18.80;99.90;;;;;;5000037;28;20073;-77
2021/08/09 07:35:24;;;;;;;1.42;0.77;;;18.80;99.90;;;;;;4999174;28;20061;-79
2021/08/09 07:37:52;;;;;;;5.13;1.05;;;18.40;99.90;;;;;;5000278;28;20027;-79
2021/08/09 07:40:17;;;;;;;4.63;1.40;;;18.60;99.90;;;;;;4999593;28;20031;-78
2021/08/09 07:42:43;;;;;;;3.60;1.05;;;18.50;99.90;;;;;;4999291;28;20162;-77
2021/08/09 07:45:09;;;;;;;2.15;0.93;;;18.60;99.90;;;;;;4996314;28;20034;-78
2021/08/09 07:47:35;;;;;;;2.47;1.00;;;18.70;99.90;;;;;;4997802;28;20065;-78
2021/08/09 07:50:01;;;;;;;2.40;0.73;;;18.80;99.90;;;;;;4997238;28;20092;-78
2021/08/09 07:52:26;;;;;;;3.10;0.73;;;18.90;99.90;;;;;;4999023;28;20062;-78
2021/08/09 07:54:52;;;;;;;3.97;1.15;;;19.60;99.90;;;;;;5000832;28;20026;-78
2021/08/09 07:57:17;;;;;;;1.63;0.80;;;19.20;99.90;;;;;;5013668;28;20060;-78
2021/08/09 07:59:43;;;;;;;1.90;0.80;;;19.50;99.90;;;;;;4997676;28;20023;-78
2021/08/09 08:02:09;;;;;;;2.90;1.05;;;19.30;99.90;;;;;;4995265;28;20491;-78
2021/08/09 08:04:34;;;;;;;1.98;0.82;;;19.40;99.90;;;;;;4997978;28;20073;-78
2021/08/09 08:07:00;;;;;;;3.75;1.02;;;19.50;99.90;;;;;;4997360;28;20030;-78
2021/08/09 08:09:26;;;;;;;6.03;1.15;;;;;;;;;;4980198;28;20116;-78
2021/08/09 08:11:52;;;;;;;2.72;0.85;;;;;;;;;;4997892;28;20033;-78
2021/08/09 08:14:18;;;;;;;4.13;1.10;;;;;;;;;;4998061;28;20042;-78
2021/08/09 08:16:46;;;;;;;2.10;1.00;;;;;;;;;;4997888;28;20061;-78
2021/08/09 08:19:12;;;;;;;3.72;1.02;;;;;;;;;;4995922;28;20085;-77
2021/08/09 08:21:38;;;;;;;3.40;0.98;;;;;;;;;;4997082;28;20487;-78
2021/08/09 08:24:04;;;;;;;5.13;1.30;;;;;;;;;;4980716;28;20034;-78
2021/08/09 08:26:30;;;;;;;6.50;1.00;;;;;;;;;;4997514;28;20041;-78
2021/08/09 08:28:56;;;;;;;2.60;1.00;;;;;;;;;;4997229;28;20041;-76
2021/08/09 08:31:22;;;;;;;2.75;0.93;;;;;;;;;;4996851;28;20038;-78
2021/08/09 08:33:48;;;;;;;2.67;0.90;;;;;;;;;;4997386;28;20042;-78
2021/08/09 08:36:14;;;;;;;3.72;0.88;;;;;;;;;;4996533;28;20041;-78
2021/08/09 08:38:40;;;;;;;2.03;0.75;;;;;;;;;;4997059;28;20029;-78
2021/08/09 08:41:06;;;;;;;3.50;1.05;;;;;;;;;;4996254;28;20023;-78
2021/08/09 08:43:34;;;;;;;3.97;0.93;;;;;;;;;;4997599;28;20566;-78
2021/08/09 08:46:04;;;;;;;3.75;0.80;;;;;;;;;;4997633;28;20031;-78
2021/08/09 08:48:31;;;;;;;3.28;0.65;;;;;;;;;;4996624;28;20037;-78
2021/08/09 08:50:58;;;;;;;3.78;0.85;;;;;;;;;;4996143;28;20068;-78
2021/08/09 08:53:27;;;;;;;4.68;0.75;;;;;;;;;;4997498;28;20513;-78
2021/08/09 08:55:53;;;;;;;4.05;0.80;;;;;;;;;;4997698;28;20406;-78
2021/08/09 08:58:19;;;;;;;3.92;0.80;;;;;;;;;;4997531;28;20078;-78
2021/08/09 09:00:47;;;;;;;2.25;0.60;;;;;;;;;;4996489;28;20026;-78
2021/08/09 09:03:20;;;;;;;2.60;0.75;;;;;;;;;;4996549;28;20033;-78
2021/08/09 09:05:58;;;;;;;3.47;0.73;;;;;;;;;;4996315;28;20033;-78
2021/08/09 09:08:37;;;;;;;2.97;0.60;;;;;;;;;;4997048;28;20018;-78
2021/08/09 09:11:04;;;;;;;4.50;1.48;;;;;;;;;;4996481;28;20113;-78
2021/08/09 09:13:30;;;;;;;2.35;0.77;;;;;;;;;;4996867;28;20134;-78
2021/08/09 09:15:56;;;;;;;1.13;0.60;;;;;;;;;;5001333;28;20046;-78
2021/08/09 09:18:22;;;;;;;1.50;0.73;;;;;;;;;;5011963;28;20109;-78
2021/08/09 09:20:48;;;;;;;2.17;0.75;;;;;;;;;;5003101;28;20505;-78
2021/08/09 09:23:18;;;;;;;3.70;0.70;;;;;;;;;;5015541;28;20026;-78
2021/08/09 09:25:45;;;;;;;3.13;1.00;;;;;;;;;;4999598;28;20030;-78
2021/08/09 09:28:29;;;;;;;2.63;0.70;;;;;;;;;;4996804;28;20042;-78
2021/08/09 09:31:00;;;;;;;3.50;0.70;;;;;;;;;;4984993;28;20026;-78
2021/08/09 09:33:26;;;;;;;6.05;0.80;;;;;;;;;;4996877;28;20526;-78
2021/08/09 09:35:52;;;;;;;2.63;0.75;;;;;;;;;;4995964;28;20034;-76
2021/08/09 09:38:19;;;;;;;3.60;0.75;;;;;;;;;;4996343;28;20093;-78
2021/08/09 09:40:45;;;;;;;3.28;0.73;;;;;;;;;;4995920;28;20527;-78
2021/08/09 09:43:18;;;;;;;5.55;0.88;;;;;;;;;;4995923;28;20547;-78
2021/08/09 09:45:54;;;;;;;2.55;0.73;;;;;;;;;;4997377;28;20062;-79
2021/08/09 09:48:40;;;;;;;3.47;1.00;;;;;;;;;;4996774;28;20030;-78
2021/08/09 09:51:13;;;;;;;4.18;0.77;;;;;;;;;;4995952;28;20049;-78
2021/08/09 09:53:40;;;;;;;3.85;0.50;;;;;;;;;;4997243;28;20026;-78
2021/08/09 09:56:06;;;;;;;2.38;0.70;;;;;;;;;;5010517;28;20034;-78
2021/08/09 09:58:32;;;;;;;2.92;0.80;;;;;;;;;;4996444;28;20026;-78
2021/08/09 10:01:02;;;;;;;2.70;0.90;;;;;;;;;;4996008;28;20435;-78
2021/08/09 10:03:30;;;;;;;1.75;0.65;;;;;;;;;;4996399;28;20452;-78
2021/08/09 10:05:56;;;;;;;2.40;0.82;;;;;;;;;;4993952;28;20044;-76
2021/08/09 10:08:25;;;;;;;3.97;0.77;;;;;;;;;;4994339;28;20034;-76
2021/08/09 10:10:52;;;;;;;3.15;0.68;;;;;;;;;;4994483;28;20030;-78
2021/08/09 10:13:21;;;;;;;3.33;0.75;;;;;;;;;;4996187;28;20073;-78
2021/08/09 10:15:54;;;;;;;2.60;0.77;;;;;;;;;;4995169;28;20034;-77
2021/08/09 10:18:23;;;;;;;3.03;0.70;;;;;;;;;;4991662;28;20084;-76
2021/08/09 10:20:50;;;;;;;2.17;0.80;;;;;;;;;;4992409;28;20479;-76
2021/08/09 10:23:34;;;;;;;2.50;0.68;;;;;;;;;;4992996;28;20438;-76
2021/08/09 10:25:59;;;;;;;1.90;0.63;;;;;;;;;;4993317;28;20037;-76
2021/08/09 10:28:45;;;;;;;5.35;0.98;;;;;;;;;;4995508;28;20034;-77
2021/08/09 10:31:47;;;;;;;2.95;0.60;;;;;;;;;;4992489;28;20030;-76
2021/08/09 10:34:32;;;;;;;2.07;0.70;;;;;;;;;;4971422;28;20053;-76
2021/08/09 10:37:06;;;;;;;2.28;0.70;;;;;;;;;;4992619;28;20027;-76
2021/08/09 10:39:44;;;;;;;2.15;0.80;;;;;;;;;;4992515;28;20080;-76
2021/08/09 10:42:25;;;;;;;3.03;0.82;;;;;;;;;;4993057;28;20022;-76
2021/08/09 10:44:52;;;;;;;2.50;0.60;;;;;;;;;;4992948;28;20395;-76
2021/08/09 10:47:36;;;;;;;1.95;0.55;;;;;;;;;;4992837;28;20468;-76
2021/08/09 10:50:02;;;;;;;3.63;0.63;;;;;;;;;;4993165;28;20077;-78
2021/08/09 10:52:35;;;;;;;3.28;0.80;;;;;;;;;;4992792;28;20037;-76
2021/08/09 10:55:40;;;;;;;2.08;0.73;;;;;;;;;;4991425;28;20403;-76
2021/08/09 10:58:06;;;;;;;3.33;0.80;;;;;;;;;;4935417;29;20103;-78
2021/08/09 11:00:41;;;;;;;5.55;0.95;;;;;;;;;;4935228;29;20032;-78
2021/08/09 11:03:07;;;;;;;3.03;0.60;;;;;;;;;;4967831;28;20406;-78
2021/08/09 11:05:33;;;;;;;1.75;0.70;;;;;;;;;;4995490;28;20101;-77
2021/08/09 11:08:14;;;;;;;1.50;0.50;;;;;;;;;;4992098;28;20030;-76
2021/08/09 11:10:55;;;;;;;2.13;0.70;;;;;;;;;;4992760;28;20093;-76
2021/08/09 11:13:22;;;;;;;2.15;0.88;;;;;;;;;;4995003;28;20057;-78
2021/08/09 11:16:01;;;;;;;3.88;0.68;;;;;;;;;;4977557;28;20031;-79
2021/08/09 11:18:28;;;;;;;2.45;0.80;;;;;;;;;;4995149;28;20053;-77
2021/08/09 11:21:10;;;;;;;3.85;0.70;;;;;;;;;;4993699;28;20088;-77
2021/08/09 11:23:37;;;;;;;3.80;0.75;;;;;;;;;;4998555;28;20062;-78
2021/08/09 11:26:04;;;;;;;5.88;0.95;;;;;;;;;;4994142;28;20058;-76
2021/08/09 11:28:30;;;;;;;4.35;0.80;;;;;;;;;;4991224;28;20034;-76
2021/08/09 11:30:58;;;;;;;2.95;0.80;;;;;;;;;;4991625;28;20030;-76
2021/08/09 11:33:32;;;;;;;2.10;0.80;;;;;;;;;;4994135;28;20650;-76
2021/08/09 11:36:00;;;;;;;3.30;0.70;;;;;;;;;;4992910;28;20026;-75
2021/08/09 11:38:26;;;;;;;3.35;0.85;;;;;;;;;;4991850;28;20050;-76
2021/08/09 11:40:54;;;;;;;1.48;0.70;;;;;;;;;;4992455;28;20524;-76
2021/08/09 11:43:23;;;;;;;1.15;0.60;;;;;;;;;;5013207;28;20042;-76
2021/08/09 11:45:49;;;;;;;6.47;0.90;;;;;;;;;;5002512;28;20077;-76
2021/08/09 11:48:23;;;;;;;3.08;0.75;;;;;;;;;;5001572;28;20050;-78
2021/08/09 11:50:54;;;;;;;2.33;0.90;;;;;;;;;;5000071;28;20476;-76
2021/08/09 11:53:20;;;;;;;2.20;0.70;;;;;;;;;;4994294;28;20098;-77
2021/08/09 11:55:46;;;;;;;2.47;0.90;;;;;;;;;;4992285;28;20069;-77
2021/08/09 11:58:27;;;;;;;2.65;0.82;;;;;;;;;;4992087;28;20395;-77
2021/08/09 12:00:53;;;;;;;3.15;0.52;;;;;;;;;;4991465;28;20104;-77
2021/08/09 12:03:21;;;;;;;2.22;1.00;;;;;;;;;;4991572;28;20069;-77
2021/08/09 12:05:47;;;;;;;3.13;1.23;;;;;;;;;;4995205;28;20029;-77
2021/08/09 12:08:13;;;;;;;3.30;1.10;;;;;;;;;;4994321;28;20018;-77
2021/08/09 12:10:40;;;;;;;1.17;0.52;;;;;;;;;;4994955;28;20042;-77
2021/08/09 12:13:25;;;;;;;1.63;0.77;;;;;;;;;;4997301;28;20105;-77
2021/08/09 12:16:07;;;;;;;1.92;0.60;;;;;;;;;;4976602;28;20106;-77
2021/08/09 12:18:33;;;;;;;2.25;0.70;;;;;;;;;;4983453;28;20157;-76
2021/08/09 12:21:14;;;;;;;2.70;0.90;;;;;;;;;;4994894;28;20376;-75
2021/08/09 12:23:54;;;;;;;4.70;0.80;;;;;;;;;;4995144;28;20023;-77
2021/08/09 12:26:38;;;;;;;4.03;1.02;;;;;;;;;;4993301;28;20840;-76
2021/08/09 12:29:06;;;;;;;1.13;0.73;;;;;;;;;;4993235;28;20491;-75
2021/08/09 12:31:39;;;;;;;1.73;0.70;;;;;;;;;;4994934;28;20045;-76
2021/08/09 12:34:06;;;;;;;2.20;0.75;;;;;;;;;;4993261;28;20038;-76
2021/08/09 12:36:33;;;;;;;3.38;0.80;;;;;;;;;;4994514;28;20113;-76
2021/08/09 12:38:59;;;;;;;1.48;0.55;;;;;;;;;;4989931;28;20099;-74
2021/08/09 12:41:26;;;;;;;3.42;0.77;;;;;;;;;;4994608;28;20527;-74
2021/08/09 12:43:52;;;;;;;3.55;1.00;;;;;;;;;;4994667;28;20113;-75
2021/08/09 12:46:18;;;;;;;2.45;0.70;;;;;;;;;;4994682;28;20033;-74
2021/08/09 12:48:51;;;;;;;3.35;0.70;;;;;;;;;;4994445;28;20409;-74
2021/08/09 12:51:18;;;;;;;1.75;0.60;;;;;;;;;;4992828;28;20034;-75
2021/08/09 12:53:44;;;;;;;3.05;0.80;;;;;;;;;;4994458;28;20023;-75
2021/08/09 12:56:10;;;;;;;3.92;0.70;;;;;;;;;;4994581;28;20106;-76
2021/08/09 12:58:37;;;;;;;2.38;0.80;;;;;;;;;;4994304;28;20022;-75
2021/08/09 13:01:03;;;;;;;2.17;0.70;;;;;;;;;;4993986;28;20029;-74
2021/08/09 13:03:29;;;;;;;1.35;0.63;;;;;;;;;;4994217;28;20061;-75
2021/08/09 13:05:55;;;;;;;2.28;0.85;;;;;;;;;;4994306;28;20800;-75
2021/08/09 13:08:22;;;;;;;3.42;0.98;;;;;;;;;;4994393;28;20117;-76
2021/08/09 13:10:48;;;;;;;2.45;0.75;;;;;;;;;;4986587;28;20057;-75
2021/08/09 13:13:14;;;;;;;3.17;0.88;;;;;;;;;;4989588;28;20484;-76
2021/08/09 13:15:40;;;;;;;1.75;0.70;;;;;;;;;;4988983;28;20097;-76
2021/08/09 13:18:07;;;;;;;3.78;0.77;;;;;;;;;;4989846;28;20041;-76
2021/08/09 13:20:32;;;;;;;1.77;0.90;;;19.60;99.90;;;;;;4989623;28;20109;-74
2021/08/09 13:22:58;;;;;;;2.85;1.23;;;27.70;73.30;;;;;;4972815;28;20821;-76
2021/08/09 13:25:24;;;;;;;3.08;0.70;;;28.00;73.80;;;;;;4989771;28;20049;-75
2021/08/09 13:27:50;;;;;;;2.85;0.90;;;27.90;73.60;;;;;;4989321;28;20065;-76
2021/08/09 13:30:16;;;;;;;2.65;0.77;;;27.90;72.50;;;;;;4989369;28;20033;-76
2021/08/09 13:32:42;;;;;;;3.25;0.90;;;27.90;72.80;;;;;;4990149;28;20023;-76
2021/08/09 13:35:08;;;;;;;1.80;0.75;;;27.70;73.30;;;;;;4991095;28;20045;-77
2021/08/09 13:37:35;;;;;;;1.75;0.60;;;27.40;71.90;;;;;;4988824;28;20038;-76
2021/08/09 13:40:01;;;;;;;1.90;0.70;;;26.80;74.90;;;;;;4989646;28;20076;-76
2021/08/09 13:42:27;;;;;;;2.97;0.60;;;26.70;73.40;;;;;;4991100;28;20027;-76
2021/08/09 13:44:53;;;;;;;2.60;0.75;;;26.40;73.10;;;;;;4990755;28;20034;-76
2021/08/09 13:47:19;;;;;;;2.28;0.80;;;26.20;74.50;;;;;;4990291;28;20034;-75
2021/08/09 13:49:44;;;;;;;2.50;0.80;;;26.50;74.10;;;;;;4975466;28;20368;-77
2021/08/09 13:52:11;;;;;;;2.17;0.70;;;26.50;74.50;;;;;;4994587;28;20037;-76
2021/08/09 13:54:36;;;;;;;1.70;0.50;;;26.70;74.40;;;;;;4997119;28;20030;-77
2021/08/09 13:57:02;;;;;;;1.48;0.73;;;26.50;74.00;;;;;;4992748;28;20030;-77
2021/08/09 13:59:28;;;;;;;2.78;1.00;;;;;;;;;;4992089;28;20030;-77
2021/08/09 14:01:54;;;;;;;3.22;0.77;;;;;;;;;;4989342;28;20057;-77
2021/08/09 14:04:20;;;;;;;2.33;0.65;;;;;;;;;;4989293;28;20117;-77
2021/08/09 14:06:46;;;;;;;2.10;0.75;;;;;;;;;;4989342;28;20038;-75
2021/08/09 14:09:12;;;;;;;3.03;0.70;;;;;;;;;;4988464;28;20525;-77
2021/08/09 14:11:38;;;;;;;2.83;0.95;;;;;;;;;;4984238;28;20038;-77
2021/08/09 14:14:04;;;;;;;2.45;0.85;;;26.30;74.90;;;;;;4989107;28;20530;-76